sensor_id;sensor_type;location;lat;lon;timestamp;P1;durP1;ratioP1;P2;durP2;ratioP2
20689;SDS011;10504;48.762;8.996;2022-07-24T00:00:22;6.27;;;3.20;;
20689;SDS011;10504;48.762;8.996;2022-07-24T00:02:47;7.73;;;2.70;;
20689;SDS011;10504;48.762;8.996;2022-07-24T00:05:13;4.70;;;2.50;;
20689;SDS011;10504;48.762;8.996;2022-07-24T00:07:38;6.37;;;2.47;;
20689;SDS011;10504;48.762;8.996;2022-07-24T00:10:05;6.53;;;2.70;;
20689;SDS011;10504;48.762;8.996;2022-07-24T00:12:31;5.97;;;2.90;;
20689;SDS011;10504;48.762;8.996;2022-07-24T00:14:57;5.27;;;2.83;;
20689;SDS011;10504;48.762;8.996;2022-07-24T00:17:23;7.33;;;2.97;;
20689;SDS011;10504;48.762;8.996;2022-07-24T00:19:49;7.50;;;3.03;;
20689;SDS011;10504;48.762;8.996;2022-07-24T00:22:14;7.10;;;2.83;;
20689;SDS011;10504;48.762;8.996;2022-07-24T00:24:40;6.00;;;2.87;;
20689;SDS011;10504;48.762;8.996;2022-07-24T00:27:06;5.93;;;2.83;;
20689;SDS011;10504;48.762;8.996;2022-07-24T00:29:31;10.13;;;3.13;;
20689;SDS011;10504;48.762;8.996;2022-07-24T00:31:57;4.77;;;2.33;;
20689;SDS011;10504;48.762;8.996;2022-07-24T00:34:23;6.30;;;2.63;;
20689;SDS011;10504;48.762;8.996;2022-07-24T00:36:48;7.17;;;3.00;;
20689;SDS011;10504;48.762;8.996;2022-07-24T00:39:14;5.73;;;2.40;;
20689;SDS011;10504;48.762;8.996;2022-07-24T00:41:40;6.63;;;2.80;;
20689;SDS011;10504;48.762;8.996;2022-07-24T00:44:07;5.53;;;2.73;;
20689;SDS011;10504;48.762;8.996;2022-07-24T00:46:35;6.87;;;2.80;;
20689;SDS011;10504;48.762;8.996;2022-07-24T00:49:03;5.40;;;2.63;;
20689;SDS011;10504;48.762;8.996;2022-07-24T00:51:31;3.93;;;2.20;;
20689;SDS011;10504;48.762;8.996;2022-07-24T00:53:58;7.23;;;2.73;;
20689;SDS011;10504;48.762;8.996;2022-07-24T00:56:24;5.77;;;2.87;;
20689;SDS011;10504;48.762;8.996;2022-07-24T00:58:50;5.03;;;2.43;;
20689;SDS011;10504;48.762;8.996;2022-07-24T01:01:16;6.50;;;2.83;;
20689;SDS011;10504;48.762;8.996;2022-07-24T01:03:43;5.37;;;2.17;;
20689;SDS011;10504;48.762;8.996;2022-07-24T01:06:09;5.23;;;2.40;;
20689;SDS011;10504;48.762;8.996;2022-07-24T01:08:35;7.27;;;2.80;;
20689;SDS011;10504;48.762;8.996;2022-07-24T01:11:02;5.97;;;2.67;;
20689;SDS011;10504;48.762;8.996;2022-07-24T01:13:29;4.80;;;2.30;;
20689;SDS011;10504;48.762;8.996;2022-07-24T01:15:55;5.33;;;2.77;;
20689;SDS011;10504;48.762;8.996;2022-07-24T01:18:21;3.70;;;2.00;;
20689;SDS011;10504;48.762;8.996;2022-07-24T01:20:47;5.13;;;2.57;;
20689;SDS011;10504;48.762;8.996;2022-07-24T01:23:14;5.60;;;2.43;;
20689;SDS011;10504;48.762;8.996;2022-07-24T01:25:40;3.23;;;2.03;;
20689;SDS011;10504;48.762;8.996;2022-07-24T01:28:06;6.90;;;2.80;;
20689;SDS011;10504;48.762;8.996;2022-07-24T01:30:32;6.17;;;2.47;;
20689;SDS011;10504;48.762;8.996;2022-07-24T01:32:58;5.83;;;2.80;;
20689;SDS011;10504;48.762;8.996;2022-07-24T01:35:24;4.57;;;1.97;;
20689;SDS011;10504;48.762;8.996;2022-07-24T01:37:51;5.00;;;2.27;;
20689;SDS011;10504;48.762;8.996;2022-07-24T01:40:17;4.90;;;2.50;;
20689;SDS011;10504;48.762;8.996;2022-07-24T01:42:43;4.27;;;2.30;;
20689;SDS011;10504;48.762;8.996;2022-07-24T01:45:09;4.67;;;1.90;;
20689;SDS011;10504;48.762;8.996;2022-07-24T01:47:34;5.50;;;2.53;;
20689;SDS011;10504;48.762;8.996;2022-07-24T01:50:00;4.07;;;2.17;;
20689;SDS011;10504;48.762;8.996;2022-07-24T01:52:26;5.07;;;2.10;;
20689;SDS011;10504;48.762;8.996;2022-07-24T01:54:52;6.93;;;2.60;;
20689;SDS011;10504;48.762;8.996;2022-07-24T01:57:18;5.60;;;2.10;;
20689;SDS011;10504;48.762;8.996;2022-07-24T01:59:44;5.97;;;2.53;;
20689;SDS011;10504;48.762;8.996;2022-07-24T02:02:09;5.13;;;2.50;;
20689;SDS011;10504;48.762;8.996;2022-07-24T02:04:35;10.77;;;2.63;;
20689;SDS011;10504;48.762;8.996;2022-07-24T02:07:01;5.73;;;2.63;;
20689;SDS011;10504;48.762;8.996;2022-07-24T02:09:27;4.50;;;2.03;;
20689;SDS011;10504;48.762;8.996;2022-07-24T02:11:53;6.07;;;2.50;;
20689;SDS011;10504;48.762;8.996;2022-07-24T02:14:18;5.60;;;2.40;;
20689;SDS011;10504;48.762;8.996;2022-07-24T02:16:44;6.83;;;2.70;;
20689;SDS011;10504;48.762;8.996;2022-07-24T02:19:10;5.57;;;2.50;;
20689;SDS011;10504;48.762;8.996;2022-07-24T02:21:36;5.53;;;2.37;;
20689;SDS011;10504;48.762;8.996;2022-07-24T02:24:02;4.47;;;2.00;;
20689;SDS011;10504;48.762;8.996;2022-07-24T02:26:28;7.47;;;3.10;;
20689;SDS011;10504;48.762;8.996;2022-07-24T02:28:54;6.50;;;2.43;;
20689;SDS011;10504;48.762;8.996;2022-07-24T02:31:19;5.97;;;2.67;;
20689;SDS011;10504;48.762;8.996;2022-07-24T02:33:45;5.80;;;2.67;;
20689;SDS011;10504;48.762;8.996;2022-07-24T02:36:11;7.27;;;2.63;;
20689;SDS011;10504;48.762;8.996;2022-07-24T02:38:37;5.40;;;2.70;;
20689;SDS011;10504;48.762;8.996;2022-07-24T02:41:03;5.43;;;2.53;;
20689;SDS011;10504;48.762;8.996;2022-07-24T02:43:28;6.67;;;3.20;;
20689;SDS011;10504;48.762;8.996;2022-07-24T02:45:54;6.13;;;2.77;;
20689;SDS011;10504;48.762;8.996;2022-07-24T02:48:20;6.23;;;2.47;;
20689;SDS011;10504;48.762;8.996;2022-07-24T02:50:46;4.47;;;2.50;;
20689;SDS011;10504;48.762;8.996;2022-07-24T02:53:12;5.87;;;2.47;;
20689;SDS011;10504;48.762;8.996;2022-07-24T02:55:37;7.00;;;3.03;;
20689;SDS011;10504;48.762;8.996;2022-07-24T02:58:03;7.47;;;2.93;;
20689;SDS011;10504;48.762;8.996;2022-07-24T03:00:29;6.37;;;2.60;;
20689;SDS011;10504;48.762;8.996;2022-07-24T03:02:55;4.57;;;2.00;;
20689;SDS011;10504;48.762;8.996;2022-07-24T03:05:20;6.10;;;2.93;;
20689;SDS011;10504;48.762;8.996;2022-07-24T03:07:47;5.97;;;1.97;;
20689;SDS011;10504;48.762;8.996;2022-07-24T03:10:13;6.97;;;2.80;;
20689;SDS011;10504;48.762;8.996;2022-07-24T03:12:39;5.97;;;2.40;;
20689;SDS011;10504;48.762;8.996;2022-07-24T03:15:06;5.73;;;2.20;;
20689;SDS011;10504;48.762;8.996;2022-07-24T03:17:32;5.97;;;2.83;;
20689;SDS011;10504;48.762;8.996;2022-07-24T03:19:58;9.43;;;3.13;;
20689;SDS011;10504;48.762;8.996;2022-07-24T03:22:24;6.23;;;2.27;;
20689;SDS011;10504;48.762;8.996;2022-07-24T03:24:50;4.30;;;2.10;;
20689;SDS011;10504;48.762;8.996;2022-07-24T03:27:16;5.03;;;2.67;;
20689;SDS011;10504;48.762;8.996;2022-07-24T03:29:42;5.63;;;2.33;;
20689;SDS011;10504;48.762;8.996;2022-07-24T03:32:07;6.57;;;2.57;;
20689;SDS011;10504;48.762;8.996;2022-07-24T03:34:33;6.10;;;2.47;;
20689;SDS011;10504;48.762;8.996;2022-07-24T03:36:59;5.43;;;2.80;;
20689;SDS011;10504;48.762;8.996;2022-07-24T03:39:24;8.33;;;3.23;;
20689;SDS011;10504;48.762;8.996;2022-07-24T03:41:50;7.73;;;2.70;;
20689;SDS011;10504;48.762;8.996;2022-07-24T03:44:16;7.73;;;2.97;;
20689;SDS011;10504;48.762;8.996;2022-07-24T03:46:42;4.10;;;2.30;;
20689;SDS011;10504;48.762;8.996;2022-07-24T03:49:08;5.47;;;2.70;;
20689;SDS011;10504;48.762;8.996;2022-07-24T03:51:33;6.70;;;2.83;;
20689;SDS011;10504;48.762;8.996;2022-07-24T03:54:02;7.07;;;3.33;;
20689;SDS011;10504;48.762;8.996;2022-07-24T03:56:28;5.63;;;2.70;;
20689;SDS011;10504;48.762;8.996;2022-07-24T03:58:54;9.57;;;2.73;;
20689;SDS011;10504;48.762;8.996;2022-07-24T04:01:21;5.60;;;2.67;;
20689;SDS011;10504;48.762;8.996;2022-07-24T04:03:47;6.40;;;3.10;;
20689;SDS011;10504;48.762;8.996;2022-07-24T04:06:12;6.50;;;3.10;;
20689;SDS011;10504;48.762;8.996;2022-07-24T04:08:38;7.27;;;3.43;;
20689;SDS011;10504;48.762;8.996;2022-07-24T04:11:04;7.17;;;3.13;;
20689;SDS011;10504;48.762;8.996;2022-07-24T04:13:32;5.27;;;2.43;;
20689;SDS011;10504;48.762;8.996;2022-07-24T04:15:58;7.50;;;3.07;;
20689;SDS011;10504;48.762;8.996;2022-07-24T04:18:24;8.83;;;2.60;;
20689;SDS011;10504;48.762;8.996;2022-07-24T04:20:50;8.63;;;3.07;;
20689;SDS011;10504;48.762;8.996;2022-07-24T04:23:16;7.60;;;2.17;;
20689;SDS011;10504;48.762;8.996;2022-07-24T04:25:43;7.80;;;3.30;;
20689;SDS011;10504;48.762;8.996;2022-07-24T04:28:09;6.57;;;2.83;;
20689;SDS011;10504;48.762;8.996;2022-07-24T04:30:34;6.47;;;2.87;;
20689;SDS011;10504;48.762;8.996;2022-07-24T04:33:00;7.00;;;3.00;;
20689;SDS011;10504;48.762;8.996;2022-07-24T04:35:26;6.00;;;2.80;;
20689;SDS011;10504;48.762;8.996;2022-07-24T04:37:52;5.13;;;2.30;;
20689;SDS011;10504;48.762;8.996;2022-07-24T04:40:17;8.43;;;2.60;;
20689;SDS011;10504;48.762;8.996;2022-07-24T04:42:43;5.67;;;2.57;;
20689;SDS011;10504;48.762;8.996;2022-07-24T04:45:09;7.37;;;3.40;;
20689;SDS011;10504;48.762;8.996;2022-07-24T04:47:35;7.40;;;3.00;;
20689;SDS011;10504;48.762;8.996;2022-07-24T04:50:01;7.10;;;2.63;;
20689;SDS011;10504;48.762;8.996;2022-07-24T04:52:28;5.90;;;2.63;;
20689;SDS011;10504;48.762;8.996;2022-07-24T04:54:54;7.60;;;2.83;;
20689;SDS011;10504;48.762;8.996;2022-07-24T04:57:20;7.07;;;3.00;;
20689;SDS011;10504;48.762;8.996;2022-07-24T04:59:45;6.13;;;3.10;;
20689;SDS011;10504;48.762;8.996;2022-07-24T05:02:11;6.77;;;2.40;;
20689;SDS011;10504;48.762;8.996;2022-07-24T05:04:36;6.53;;;2.97;;
20689;SDS011;10504;48.762;8.996;2022-07-24T05:07:02;10.57;;;3.30;;
20689;SDS011;10504;48.762;8.996;2022-07-24T05:09:29;7.23;;;3.17;;
20689;SDS011;10504;48.762;8.996;2022-07-24T05:11:54;8.33;;;3.83;;
20689;SDS011;10504;48.762;8.996;2022-07-24T05:14:20;4.87;;;2.50;;
20689;SDS011;10504;48.762;8.996;2022-07-24T05:16:47;5.17;;;2.40;;
20689;SDS011;10504;48.762;8.996;2022-07-24T05:19:12;4.97;;;2.60;;
20689;SDS011;10504;48.762;8.996;2022-07-24T05:21:38;7.13;;;2.80;;
20689;SDS011;10504;48.762;8.996;2022-07-24T05:24:04;7.53;;;3.37;;
20689;SDS011;10504;48.762;8.996;2022-07-24T05:26:30;6.60;;;2.93;;
20689;SDS011;10504;48.762;8.996;2022-07-24T05:28:57;4.23;;;2.60;;
20689;SDS011;10504;48.762;8.996;2022-07-24T05:31:24;6.03;;;2.33;;
20689;SDS011;10504;48.762;8.996;2022-07-24T05:33:49;5.80;;;2.30;;
20689;SDS011;10504;48.762;8.996;2022-07-24T05:36:15;4.20;;;2.27;;
20689;SDS011;10504;48.762;8.996;2022-07-24T05:38:41;7.90;;;2.90;;
20689;SDS011;10504;48.762;8.996;2022-07-24T05:41:08;4.87;;;2.10;;
20689;SDS011;10504;48.762;8.996;2022-07-24T05:43:33;8.07;;;2.93;;
20689;SDS011;10504;48.762;8.996;2022-07-24T05:45:59;4.70;;;2.20;;
20689;SDS011;10504;48.762;8.996;2022-07-24T05:48:24;3.73;;;2.00;;
20689;SDS011;10504;48.762;8.996;2022-07-24T05:50:50;4.67;;;2.23;;
20689;SDS011;10504;48.762;8.996;2022-07-24T05:53:16;4.77;;;2.23;;
20689;SDS011;10504;48.762;8.996;2022-07-24T05:55:41;6.27;;;2.67;;
20689;SDS011;10504;48.762;8.996;2022-07-24T05:58:07;8.27;;;2.47;;
20689;SDS011;10504;48.762;8.996;2022-07-24T06:00:33;5.93;;;2.47;;
20689;SDS011;10504;48.762;8.996;2022-07-24T06:02:58;6.47;;;3.00;;
20689;SDS011;10504;48.762;8.996;2022-07-24T06:05:24;4.40;;;2.30;;
20689;SDS011;10504;48.762;8.996;2022-07-24T06:07:49;5.77;;;2.63;;
20689;SDS011;10504;48.762;8.996;2022-07-24T06:10:15;7.10;;;2.63;;
20689;SDS011;10504;48.762;8.996;2022-07-24T06:12:41;7.00;;;2.60;;
20689;SDS011;10504;48.762;8.996;2022-07-24T06:15:07;8.07;;;2.77;;
20689;SDS011;10504;48.762;8.996;2022-07-24T06:17:33;6.00;;;2.70;;
20689;SDS011;10504;48.762;8.996;2022-07-24T06:19:59;4.60;;;2.53;;
20689;SDS011;10504;48.762;8.996;2022-07-24T06:22:25;4.50;;;2.13;;
20689;SDS011;10504;48.762;8.996;2022-07-24T06:24:50;4.60;;;2.20;;
20689;SDS011;10504;48.762;8.996;2022-07-24T06:27:16;4.13;;;1.93;;
20689;SDS011;10504;48.762;8.996;2022-07-24T06:29:41;5.37;;;2.27;;
20689;SDS011;10504;48.762;8.996;2022-07-24T06:32:07;8.63;;;2.57;;
20689;SDS011;10504;48.762;8.996;2022-07-24T06:34:33;6.07;;;2.20;;
20689;SDS011;10504;48.762;8.996;2022-07-24T06:36:59;4.43;;;1.90;;
20689;SDS011;10504;48.762;8.996;2022-07-24T06:39:30;5.57;;;2.27;;
20689;SDS011;10504;48.762;8.996;2022-07-24T06:41:56;4.40;;;2.07;;
20689;SDS011;10504;48.762;8.996;2022-07-24T06:44:22;4.97;;;2.00;;
20689;SDS011;10504;48.762;8.996;2022-07-24T06:46:47;4.50;;;1.80;;
20689;SDS011;10504;48.762;8.996;2022-07-24T06:49:13;4.90;;;2.40;;
20689;SDS011;10504;48.762;8.996;2022-07-24T06:51:39;2.93;;;1.80;;
20689;SDS011;10504;48.762;8.996;2022-07-24T06:54:05;4.63;;;1.90;;
20689;SDS011;10504;48.762;8.996;2022-07-24T06:56:30;5.87;;;2.60;;
20689;SDS011;10504;48.762;8.996;2022-07-24T06:58:56;4.17;;;2.20;;
20689;SDS011;10504;48.762;8.996;2022-07-24T07:01:23;4.30;;;2.13;;
20689;SDS011;10504;48.762;8.996;2022-07-24T07:03:51;5.47;;;2.63;;
20689;SDS011;10504;48.762;8.996;2022-07-24T07:06:17;4.53;;;2.03;;
20689;SDS011;10504;48.762;8.996;2022-07-24T07:08:43;5.70;;;2.60;;
20689;SDS011;10504;48.762;8.996;2022-07-24T07:11:09;6.27;;;2.20;;
20689;SDS011;10504;48.762;8.996;2022-07-24T07:13:34;4.23;;;1.80;;
20689;SDS011;10504;48.762;8.996;2022-07-24T07:16:00;6.07;;;2.17;;
20689;SDS011;10504;48.762;8.996;2022-07-24T07:18:26;4.43;;;2.23;;
20689;SDS011;10504;48.762;8.996;2022-07-24T07:20:51;4.43;;;2.10;;
20689;SDS011;10504;48.762;8.996;2022-07-24T07:23:20;5.80;;;2.20;;
20689;SDS011;10504;48.762;8.996;2022-07-24T07:25:47;2.70;;;1.80;;
20689;SDS011;10504;48.762;8.996;2022-07-24T07:28:12;6.37;;;2.67;;
20689;SDS011;10504;48.762;8.996;2022-07-24T07:30:38;5.43;;;2.13;;
20689;SDS011;10504;48.762;8.996;2022-07-24T07:33:04;4.50;;;2.30;;
20689;SDS011;10504;48.762;8.996;2022-07-24T07:35:29;4.70;;;2.33;;
20689;SDS011;10504;48.762;8.996;2022-07-24T07:37:55;2.97;;;1.70;;
20689;SDS011;10504;48.762;8.996;2022-07-24T07:40:21;3.77;;;1.90;;
20689;SDS011;10504;48.762;8.996;2022-07-24T07:42:49;5.70;;;2.40;;
20689;SDS011;10504;48.762;8.996;2022-07-24T07:45:14;3.90;;;1.93;;
20689;SDS011;10504;48.762;8.996;2022-07-24T07:47:40;5.50;;;2.27;;
20689;SDS011;10504;48.762;8.996;2022-07-24T07:50:06;3.80;;;2.17;;
20689;SDS011;10504;48.762;8.996;2022-07-24T07:52:32;4.23;;;1.40;;
20689;SDS011;10504;48.762;8.996;2022-07-24T07:54:58;4.67;;;2.07;;
20689;SDS011;10504;48.762;8.996;2022-07-24T07:57:24;3.27;;;1.60;;
20689;SDS011;10504;48.762;8.996;2022-07-24T07:59:49;3.40;;;1.67;;
20689;SDS011;10504;48.762;8.996;2022-07-24T08:02:15;4.93;;;2.30;;
20689;SDS011;10504;48.762;8.996;2022-07-24T08:04:41;4.23;;;2.20;;
20689;SDS011;10504;48.762;8.996;2022-07-24T08:07:07;2.37;;;1.53;;
20689;SDS011;10504;48.762;8.996;2022-07-24T08:09:33;3.17;;;1.47;;
20689;SDS011;10504;48.762;8.996;2022-07-24T08:11:58;2.13;;;1.40;;
20689;SDS011;10504;48.762;8.996;2022-07-24T08:14:24;3.43;;;1.87;;
20689;SDS011;10504;48.762;8.996;2022-07-24T08:16:50;5.60;;;1.87;;
20689;SDS011;10504;48.762;8.996;2022-07-24T08:19:15;2.90;;;1.50;;
20689;SDS011;10504;48.762;8.996;2022-07-24T08:21:41;2.80;;;1.57;;
20689;SDS011;10504;48.762;8.996;2022-07-24T08:24:07;3.97;;;1.80;;
20689;SDS011;10504;48.762;8.996;2022-07-24T08:26:33;3.53;;;1.80;;
20689;SDS011;10504;48.762;8.996;2022-07-24T08:28:58;2.83;;;1.60;;
20689;SDS011;10504;48.762;8.996;2022-07-24T08:31:25;2.93;;;1.53;;
20689;SDS011;10504;48.762;8.996;2022-07-24T08:33:51;3.97;;;2.00;;
20689;SDS011;10504;48.762;8.996;2022-07-24T08:36:17;6.37;;;2.70;;
20689;SDS011;10504;48.762;8.996;2022-07-24T08:38:42;4.30;;;1.60;;
20689;SDS011;10504;48.762;8.996;2022-07-24T08:41:08;6.83;;;2.57;;
20689;SDS011;10504;48.762;8.996;2022-07-24T08:43:34;3.20;;;1.77;;
20689;SDS011;10504;48.762;8.996;2022-07-24T08:46:00;4.30;;;2.20;;
20689;SDS011;10504;48.762;8.996;2022-07-24T08:48:27;5.23;;;2.30;;
20689;SDS011;10504;48.762;8.996;2022-07-24T08:50:53;3.80;;;1.50;;
20689;SDS011;10504;48.762;8.996;2022-07-24T08:53:21;3.67;;;1.60;;
20689;SDS011;10504;48.762;8.996;2022-07-24T08:55:47;2.93;;;1.97;;
20689;SDS011;10504;48.762;8.996;2022-07-24T08:58:13;3.13;;;1.63;;
20689;SDS011;10504;48.762;8.996;2022-07-24T09:00:39;2.27;;;1.43;;
20689;SDS011;10504;48.762;8.996;2022-07-24T09:03:06;4.83;;;2.20;;
20689;SDS011;10504;48.762;8.996;2022-07-24T09:05:32;4.47;;;1.87;;
20689;SDS011;10504;48.762;8.996;2022-07-24T09:08:12;5.00;;;2.00;;
20689;SDS011;10504;48.762;8.996;2022-07-24T09:10:40;3.37;;;1.70;;
20689;SDS011;10504;48.762;8.996;2022-07-24T09:13:15;4.13;;;1.67;;
20689;SDS011;10504;48.762;8.996;2022-07-24T09:15:46;3.77;;;1.73;;
20689;SDS011;10504;48.762;8.996;2022-07-24T09:18:32;4.40;;;1.93;;
20689;SDS011;10504;48.762;8.996;2022-07-24T09:21:10;4.30;;;1.93;;
20689;SDS011;10504;48.762;8.996;2022-07-24T09:23:38;3.00;;;1.73;;
20689;SDS011;10504;48.762;8.996;2022-07-24T09:26:04;3.00;;;1.60;;
20689;SDS011;10504;48.762;8.996;2022-07-24T09:28:32;5.23;;;2.20;;
20689;SDS011;10504;48.762;8.996;2022-07-24T09:31:15;4.53;;;1.83;;
20689;SDS011;10504;48.762;8.996;2022-07-24T09:33:41;2.70;;;1.50;;
20689;SDS011;10504;48.762;8.996;2022-07-24T09:36:14;5.90;;;2.20;;
20689;SDS011;10504;48.762;8.996;2022-07-24T09:38:48;3.60;;;1.67;;
20689;SDS011;10504;48.762;8.996;2022-07-24T09:41:21;3.43;;;1.93;;
20689;SDS011;10504;48.762;8.996;2022-07-24T09:44:01;3.00;;;1.57;;
20689;SDS011;10504;48.762;8.996;2022-07-24T09:46:28;3.83;;;1.47;;
20689;SDS011;10504;48.762;8.996;2022-07-24T09:48:55;3.70;;;1.83;;
20689;SDS011;10504;48.762;8.996;2022-07-24T09:51:23;4.37;;;1.70;;
20689;SDS011;10504;48.762;8.996;2022-07-24T09:53:57;6.07;;;2.13;;
20689;SDS011;10504;48.762;8.996;2022-07-24T09:56:24;2.30;;;1.70;;
20689;SDS011;10504;48.762;8.996;2022-07-24T09:58:51;3.07;;;1.40;;
20689;SDS011;10504;48.762;8.996;2022-07-24T10:01:22;3.87;;;1.60;;
20689;SDS011;10504;48.762;8.996;2022-07-24T10:03:50;3.80;;;1.73;;
20689;SDS011;10504;48.762;8.996;2022-07-24T10:06:19;4.37;;;1.97;;
20689;SDS011;10504;48.762;8.996;2022-07-24T10:08:47;3.33;;;1.90;;
20689;SDS011;10504;48.762;8.996;2022-07-24T10:11:15;3.10;;;1.83;;
20689;SDS011;10504;48.762;8.996;2022-07-24T10:13:41;3.83;;;2.10;;
20689;SDS011;10504;48.762;8.996;2022-07-24T10:18:49;2.93;;;1.43;;
20689;SDS011;10504;48.762;8.996;2022-07-24T10:23:58;3.10;;;1.60;;
20689;SDS011;10504;48.762;8.996;2022-07-24T10:29:21;4.23;;;1.80;;
20689;SDS011;10504;48.762;8.996;2022-07-24T10:31:50;3.77;;;1.73;;
20689;SDS011;10504;48.762;8.996;2022-07-24T10:42:24;3.22;;;1.73;;
20689;SDS011;10504;48.762;8.996;2022-07-24T10:47:56;3.13;;;1.57;;
20689;SDS011;10504;48.762;8.996;2022-07-24T10:50:22;3.65;;;1.90;;
20689;SDS011;10504;48.762;8.996;2022-07-24T10:52:48;3.05;;;1.55;;
20689;SDS011;10504;48.762;8.996;2022-07-24T10:55:24;6.30;;;2.13;;
20689;SDS011;10504;48.762;8.996;2022-07-24T11:03:06;3.47;;;1.55;;
20689;SDS011;10504;48.762;8.996;2022-07-24T11:05:52;5.00;;;2.10;;
20689;SDS011;10504;48.762;8.996;2022-07-24T11:08:32;3.78;;;1.75;;
20689;SDS011;10504;48.762;8.996;2022-07-24T11:11:19;3.67;;;2.25;;
20689;SDS011;10504;48.762;8.996;2022-07-24T11:13:50;3.25;;;1.50;;
20689;SDS011;10504;48.762;8.996;2022-07-24T11:16:18;3.45;;;2.00;;
20689;SDS011;10504;48.762;8.996;2022-07-24T11:29:18;3.10;;;1.75;;
20689;SDS011;10504;48.762;8.996;2022-07-24T11:31:45;2.58;;;1.40;;
20689;SDS011;10504;48.762;8.996;2022-07-24T11:34:13;2.70;;;1.50;;
20689;SDS011;10504;48.762;8.996;2022-07-24T11:36:39;2.90;;;1.73;;
20689;SDS011;10504;48.762;8.996;2022-07-24T11:39:09;2.65;;;1.65;;
20689;SDS011;10504;48.762;8.996;2022-07-24T11:44:14;5.07;;;1.92;;
20689;SDS011;10504;48.762;8.996;2022-07-24T11:46:46;1.95;;;1.20;;
20689;SDS011;10504;48.762;8.996;2022-07-24T11:49:11;4.20;;;2.08;;
20689;SDS011;10504;48.762;8.996;2022-07-24T11:51:43;2.67;;;1.73;;
20689;SDS011;10504;48.762;8.996;2022-07-24T11:54:11;2.97;;;1.83;;
20689;SDS011;10504;48.762;8.996;2022-07-24T11:56:38;3.10;;;1.65;;
20689;SDS011;10504;48.762;8.996;2022-07-24T11:59:04;3.58;;;1.60;;
20689;SDS011;10504;48.762;8.996;2022-07-24T12:01:30;4.10;;;1.95;;
20689;SDS011;10504;48.762;8.996;2022-07-24T12:03:59;2.80;;;1.48;;
20689;SDS011;10504;48.762;8.996;2022-07-24T12:06:25;3.13;;;1.92;;
20689;SDS011;10504;48.762;8.996;2022-07-24T12:08:56;2.78;;;1.92;;
20689;SDS011;10504;48.762;8.996;2022-07-24T12:11:42;4.43;;;1.88;;
20689;SDS011;10504;48.762;8.996;2022-07-24T12:14:17;6.00;;;2.40;;
20689;SDS011;10504;48.762;8.996;2022-07-24T12:16:44;4.65;;;2.30;;
20689;SDS011;10504;48.762;8.996;2022-07-24T12:19:20;2.67;;;1.80;;
20689;SDS011;10504;48.762;8.996;2022-07-24T12:21:48;3.78;;;1.98;;
20689;SDS011;10504;48.762;8.996;2022-07-24T12:24:15;2.97;;;1.73;;
20689;SDS011;10504;48.762;8.996;2022-07-24T12:26:48;3.38;;;1.67;;
20689;SDS011;10504;48.762;8.996;2022-07-24T12:29:17;5.75;;;1.70;;
20689;SDS011;10504;48.762;8.996;2022-07-24T12:31:44;2.92;;;1.63;;
20689;SDS011;10504;48.762;8.996;2022-07-24T12:34:10;3.40;;;1.60;;
20689;SDS011;10504;48.762;8.996;2022-07-24T12:36:36;3.72;;;1.90;;
20689;SDS011;10504;48.762;8.996;2022-07-24T12:39:02;5.18;;;1.73;;
20689;SDS011;10504;48.762;8.996;2022-07-24T12:41:30;3.50;;;2.00;;
20689;SDS011;10504;48.762;8.996;2022-07-24T12:49:08;2.10;;;1.25;;
20689;SDS011;10504;48.762;8.996;2022-07-24T12:54:31;3.65;;;1.80;;
20689;SDS011;10504;48.762;8.996;2022-07-24T12:57:06;2.05;;;1.33;;
20689;SDS011;10504;48.762;8.996;2022-07-24T12:59:37;4.60;;;1.70;;
20689;SDS011;10504;48.762;8.996;2022-07-24T13:02:07;4.13;;;1.95;;
20689;SDS011;10504;48.762;8.996;2022-07-24T13:04:41;3.60;;;1.90;;
20689;SDS011;10504;48.762;8.996;2022-07-24T13:07:12;3.20;;;1.83;;
20689;SDS011;10504;48.762;8.996;2022-07-24T13:09:39;3.65;;;1.95;;
20689;SDS011;10504;48.762;8.996;2022-07-24T13:12:05;3.15;;;1.42;;
20689;SDS011;10504;48.762;8.996;2022-07-24T13:14:33;2.92;;;1.55;;
20689;SDS011;10504;48.762;8.996;2022-07-24T13:17:07;3.25;;;1.63;;
20689;SDS011;10504;48.762;8.996;2022-07-24T13:19:35;2.40;;;1.42;;
20689;SDS011;10504;48.762;8.996;2022-07-24T13:22:05;3.90;;;2.00;;
20689;SDS011;10504;48.762;8.996;2022-07-24T13:24:31;2.25;;;1.27;;
20689;SDS011;10504;48.762;8.996;2022-07-24T13:27:01;4.05;;;1.88;;
20689;SDS011;10504;48.762;8.996;2022-07-24T13:29:27;2.83;;;1.75;;
20689;SDS011;10504;48.762;8.996;2022-07-24T13:31:53;2.20;;;1.48;;
20689;SDS011;10504;48.762;8.996;2022-07-24T13:34:19;2.38;;;1.52;;
20689;SDS011;10504;48.762;8.996;2022-07-24T13:36:45;2.50;;;1.42;;
20689;SDS011;10504;48.762;8.996;2022-07-24T13:39:11;2.70;;;1.70;;
20689;SDS011;10504;48.762;8.996;2022-07-24T13:41:38;2.28;;;1.58;;
20689;SDS011;10504;48.762;8.996;2022-07-24T13:44:04;2.03;;;1.42;;
20689;SDS011;10504;48.762;8.996;2022-07-24T13:46:30;1.65;;;1.40;;
20689;SDS011;10504;48.762;8.996;2022-07-24T13:48:57;2.72;;;1.50;;
20689;SDS011;10504;48.762;8.996;2022-07-24T13:51:24;2.88;;;1.50;;
20689;SDS011;10504;48.762;8.996;2022-07-24T13:53:50;2.55;;;1.45;;
20689;SDS011;10504;48.762;8.996;2022-07-24T13:56:16;4.05;;;1.70;;
20689;SDS011;10504;48.762;8.996;2022-07-24T13:58:42;4.30;;;1.98;;
20689;SDS011;10504;48.762;8.996;2022-07-24T14:01:09;4.28;;;1.70;;
20689;SDS011;10504;48.762;8.996;2022-07-24T14:03:35;3.85;;;1.70;;
20689;SDS011;10504;48.762;8.996;2022-07-24T14:06:04;2.78;;;1.55;;
20689;SDS011;10504;48.762;8.996;2022-07-24T14:08:30;3.40;;;1.63;;
20689;SDS011;10504;48.762;8.996;2022-07-24T14:10:55;2.65;;;1.40;;
20689;SDS011;10504;48.762;8.996;2022-07-24T14:13:21;1.73;;;1.33;;
20689;SDS011;10504;48.762;8.996;2022-07-24T14:15:47;1.98;;;1.30;;
20689;SDS011;10504;48.762;8.996;2022-07-24T14:18:12;3.55;;;1.90;;
20689;SDS011;10504;48.762;8.996;2022-07-24T14:20:38;2.50;;;1.75;;
20689;SDS011;10504;48.762;8.996;2022-07-24T14:23:04;2.35;;;1.60;;
20689;SDS011;10504;48.762;8.996;2022-07-24T14:25:31;2.28;;;1.52;;
20689;SDS011;10504;48.762;8.996;2022-07-24T14:27:56;4.32;;;1.85;;
20689;SDS011;10504;48.762;8.996;2022-07-24T14:30:22;3.65;;;1.60;;
20689;SDS011;10504;48.762;8.996;2022-07-24T14:32:48;3.78;;;1.63;;
20689;SDS011;10504;48.762;8.996;2022-07-24T14:35:14;4.18;;;2.03;;
20689;SDS011;10504;48.762;8.996;2022-07-24T14:37:40;2.55;;;1.50;;
20689;SDS011;10504;48.762;8.996;2022-07-24T14:40:06;1.90;;;1.27;;
20689;SDS011;10504;48.762;8.996;2022-07-24T14:42:33;1.58;;;1.35;;
20689;SDS011;10504;48.762;8.996;2022-07-24T14:44:59;3.17;;;1.80;;
20689;SDS011;10504;48.762;8.996;2022-07-24T14:47:25;2.67;;;1.40;;
20689;SDS011;10504;48.762;8.996;2022-07-24T14:49:51;1.85;;;1.15;;
20689;SDS011;10504;48.762;8.996;2022-07-24T14:52:17;2.35;;;1.30;;
20689;SDS011;10504;48.762;8.996;2022-07-24T14:54:44;1.80;;;1.25;;
20689;SDS011;10504;48.762;8.996;2022-07-24T14:57:11;3.50;;;1.70;;
20689;SDS011;10504;48.762;8.996;2022-07-24T14:59:37;2.38;;;1.50;;
20689;SDS011;10504;48.762;8.996;2022-07-24T15:02:02;2.67;;;1.52;;
20689;SDS011;10504;48.762;8.996;2022-07-24T15:04:28;3.80;;;2.00;;
20689;SDS011;10504;48.762;8.996;2022-07-24T15:06:54;2.22;;;1.20;;
20689;SDS011;10504;48.762;8.996;2022-07-24T15:09:19;2.10;;;1.27;;
20689;SDS011;10504;48.762;8.996;2022-07-24T15:11:45;2.40;;;1.38;;
20689;SDS011;10504;48.762;8.996;2022-07-24T15:14:11;2.10;;;1.30;;
20689;SDS011;10504;48.762;8.996;2022-07-24T15:16:36;3.45;;;1.90;;
20689;SDS011;10504;48.762;8.996;2022-07-24T15:19:02;4.70;;;1.90;;
20689;SDS011;10504;48.762;8.996;2022-07-24T15:21:28;1.88;;;1.23;;
20689;SDS011;10504;48.762;8.996;2022-07-24T15:23:54;2.45;;;1.40;;
20689;SDS011;10504;48.762;8.996;2022-07-24T15:26:20;3.10;;;1.67;;
20689;SDS011;10504;48.762;8.996;2022-07-24T15:28:45;2.70;;;1.48;;
20689;SDS011;10504;48.762;8.996;2022-07-24T15:31:11;3.58;;;1.75;;